sensor_id;sensor_type;location;lat;lon;timestamp;pressure;altitude;pressure_sealevel;temperature;humidity
51986;BME280;38002;53.296;6.600;2023-07-13T00:01:43;101354.31;;;16.53;72.67
51986;BME280;38002;53.296;6.600;2023-07-13T00:06:45;101366.53;;;16.51;72.92
51986;BME280;38002;53.296;6.600;2023-07-13T00:11:49;101354.59;;;16.44;76.37
51986;BME280;38002;53.296;6.600;2023-07-13T00:16:50;101355.06;;;16.47;72.71
51986;BME280;38002;53.296;6.600;2023-07-13T00:21:50;101355.06;;;16.47;73.00
51986;BME280;38002;53.296;6.600;2023-07-13T00:26:51;101358.69;;;16.48;72.73
51986;BME280;38002;53.296;6.600;2023-07-13T00:31:52;101364.81;;;16.50;73.80
51986;BME280;38002;53.296;6.600;2023-07-13T00:36:52;101365.00;;;16.48;73.75
51986;BME280;38002;53.296;6.600;2023-07-13T00:41:53;101366.69;;;16.49;74.03
51986;BME280;38002;53.296;6.600;2023-07-13T00:46:53;101364.44;;;16.53;73.88
51986;BME280;38002;53.296;6.600;2023-07-13T00:52:00;101370.41;;;16.56;73.94
51986;BME280;38002;53.296;6.600;2023-07-13T00:57:03;101370.41;;;16.56;74.09
51986;BME280;38002;53.296;6.600;2023-07-13T01:02:04;101366.13;;;16.54;74.16
51986;BME280;38002;53.296;6.600;2023-07-13T01:07:06;101375.63;;;16.51;74.52
51986;BME280;38002;53.296;6.600;2023-07-13T01:12:07;101384.03;;;16.50;74.60
51986;BME280;38002;53.296;6.600;2023-07-13T01:17:10;101371.72;;;16.46;74.71
51986;BME280;38002;53.296;6.600;2023-07-13T01:22:13;101367.19;;;16.38;74.70
51986;BME280;38002;53.296;6.600;2023-07-13T01:27:16;101373.53;;;16.39;74.90
51986;BME280;38002;53.296;6.600;2023-07-13T01:32:20;101378.63;;;16.42;74.95
51986;BME280;38002;53.296;6.600;2023-07-13T01:37:23;101368.69;;;16.41;75.12
51986;BME280;38002;53.296;6.600;2023-07-13T01:42:24;101374.19;;;16.41;75.69
51986;BME280;38002;53.296;6.600;2023-07-13T01:47:25;101374.19;;;16.41;75.62
51986;BME280;38002;53.296;6.600;2023-07-13T01:52:26;101384.69;;;16.37;75.88
51986;BME280;38002;53.296;6.600;2023-07-13T01:57:26;101385.72;;;16.36;76.23
51986;BME280;38002;53.296;6.600;2023-07-13T02:02:27;101380.13;;;16.29;76.25
51986;BME280;38002;53.296;6.600;2023-07-13T02:07:27;101379.84;;;16.24;76.35
51986;BME280;38002;53.296;6.600;2023-07-13T02:12:28;101380.22;;;16.21;76.00
51986;BME280;38002;53.296;6.600;2023-07-13T02:17:28;101380.22;;;16.21;76.09
51986;BME280;38002;53.296;6.600;2023-07-13T02:22:29;101378.69;;;16.19;76.03
51986;BME280;38002;53.296;6.600;2023-07-13T02:27:29;101381.81;;;16.16;76.20
51986;BME280;38002;53.296;6.600;2023-07-13T02:32:30;101378.03;;;16.17;76.33
51986;BME280;38002;53.296;6.600;2023-07-13T02:37:30;101378.88;;;16.17;76.08
51986;BME280;38002;53.296;6.600;2023-07-13T02:42:30;101383.03;;;16.13;76.52
51986;BME280;38002;53.296;6.600;2023-07-13T02:47:32;101382.75;;;16.08;76.39
51986;BME280;38002;53.296;6.600;2023-07-13T02:52:33;101377.97;;;16.02;76.68
51986;BME280;38002;53.296;6.600;2023-07-13T02:57:33;101387.06;;;16.03;76.75
51986;BME280;38002;53.296;6.600;2023-07-13T03:02:34;101377.50;;;15.99;76.86
51986;BME280;38002;53.296;6.600;2023-07-13T03:07:35;101378.75;;;15.96;76.98
51986;BME280;38002;53.296;6.600;2023-07-13T03:12:35;101375.13;;;15.96;76.89
51986;BME280;38002;53.296;6.600;2023-07-13T03:17:36;101387.50;;;15.92;77.43
51986;BME280;38002;53.296;6.600;2023-07-13T03:22:36;101393.72;;;15.85;77.30
51986;BME280;38002;53.296;6.600;2023-07-13T03:27:37;101403.84;;;15.85;77.34
51986;BME280;38002;53.296;6.600;2023-07-13T03:32:38;101400.78;;;15.80;77.97
51986;BME280;38002;53.296;6.600;2023-07-13T03:37:38;101405.25;;;15.81;77.82
51986;BME280;38002;53.296;6.600;2023-07-13T03:42:42;101405.56;;;15.86;78.25
51986;BME280;38002;53.296;6.600;2023-07-13T03:47:43;101406.41;;;15.86;78.55
51986;BME280;38002;53.296;6.600;2023-07-13T03:52:43;101405.19;;;15.89;78.62
51986;BME280;38002;53.296;6.600;2023-07-13T03:57:44;101405.66;;;15.93;79.17
51986;BME280;38002;53.296;6.600;2023-07-13T04:02:44;101407.00;;;15.97;79.01
51986;BME280;38002;53.296;6.600;2023-07-13T04:07:47;101413.00;;;16.00;79.44
51986;BME280;38002;53.296;6.600;2023-07-13T04:12:47;101407.69;;;15.99;79.56
51986;BME280;38002;53.296;6.600;2023-07-13T04:17:47;101416.75;;;15.99;79.89
51986;BME280;38002;53.296;6.600;2023-07-13T04:22:48;101423.19;;;15.92;79.86
51986;BME280;38002;53.296;6.600;2023-07-13T04:27:49;101419.91;;;15.88;80.12
51986;BME280;38002;53.296;6.600;2023-07-13T04:32:51;101430.88;;;15.88;80.00
51986;BME280;38002;53.296;6.600;2023-07-13T04:37:52;101434.31;;;15.90;80.17
51986;BME280;38002;53.296;6.600;2023-07-13T04:42:52;101432.59;;;15.89;80.52
51986;BME280;38002;53.296;6.600;2023-07-13T04:47:53;101441.69;;;15.89;80.81
51986;BME280;38002;53.296;6.600;2023-07-13T04:52:54;101442.53;;;15.90;80.92
51986;BME280;38002;53.296;6.600;2023-07-13T04:57:54;101454.16;;;15.92;81.00
51986;BME280;38002;53.296;6.600;2023-07-13T05:02:55;101450.72;;;15.98;81.34
51986;BME280;38002;53.296;6.600;2023-07-13T05:07:57;101448.09;;;16.05;81.19
51986;BME280;38002;53.296;6.600;2023-07-13T05:12:57;101458.31;;;16.11;81.29
51986;BME280;38002;53.296;6.600;2023-07-13T05:17:58;101457.41;;;16.18;81.46
51986;BME280;38002;53.296;6.600;2023-07-13T05:22:58;101458.38;;;16.25;81.20
51986;BME280;38002;53.296;6.600;2023-07-13T05:27:59;101464.84;;;16.32;81.53
51986;BME280;38002;53.296;6.600;2023-07-13T05:32:59;101467.88;;;16.38;81.42
51986;BME280;38002;53.296;6.600;2023-07-13T05:38:00;101485.50;;;16.43;81.54
51986;BME280;38002;53.296;6.600;2023-07-13T05:43:00;101467.06;;;16.52;81.64
51986;BME280;38002;53.296;6.600;2023-07-13T05:48:00;101483.13;;;16.63;81.98
51986;BME280;38002;53.296;6.600;2023-07-13T05:53:02;101482.47;;;16.75;81.29
51986;BME280;38002;53.296;6.600;2023-07-13T05:58:02;101490.47;;;16.85;81.17
51986;BME280;38002;53.296;6.600;2023-07-13T06:03:03;101494.81;;;16.94;81.19
51986;BME280;38002;53.296;6.600;2023-07-13T06:08:03;101495.38;;;17.04;81.01
51986;BME280;38002;53.296;6.600;2023-07-13T06:13:04;101502.31;;;17.15;81.23
51986;BME280;38002;53.296;6.600;2023-07-13T06:18:05;101504.78;;;17.24;80.86
51986;BME280;38002;53.296;6.600;2023-07-13T06:23:08;101509.41;;;17.39;80.55
51986;BME280;38002;53.296;6.600;2023-07-13T06:28:09;101511.88;;;17.48;80.43
51986;BME280;38002;53.296;6.600;2023-07-13T06:33:09;101511.44;;;17.59;80.52
51986;BME280;38002;53.296;6.600;2023-07-13T06:38:10;101524.84;;;17.69;80.07
51986;BME280;38002;53.296;6.600;2023-07-13T06:43:10;101516.75;;;17.82;79.88
51986;BME280;38002;53.296;6.600;2023-07-13T06:48:13;101519.50;;;17.97;79.74
51986;BME280;38002;53.296;6.600;2023-07-13T06:53:14;101528.66;;;18.04;79.73
51986;BME280;38002;53.296;6.600;2023-07-13T06:58:18;101527.19;;;18.23;79.24
51986;BME280;38002;53.296;6.600;2023-07-13T07:03:19;101537.03;;;18.32;78.69
51986;BME280;38002;53.296;6.600;2023-07-13T07:08:19;101537.47;;;18.35;78.62
51986;BME280;38002;53.296;6.600;2023-07-13T07:13:20;101548.34;;;18.43;78.34
51986;BME280;38002;53.296;6.600;2023-07-13T07:18:20;101535.19;;;18.60;77.75
51986;BME280;38002;53.296;6.600;2023-07-13T07:23:21;101539.00;;;18.80;77.13
51986;BME280;38002;53.296;6.600;2023-07-13T07:28:22;101535.06;;;18.89;76.98
51986;BME280;38002;53.296;6.600;2023-07-13T07:33:23;101531.75;;;19.07;76.35
51986;BME280;38002;53.296;6.600;2023-07-13T07:38:23;101541.41;;;19.18;76.25
51986;BME280;38002;53.296;6.600;2023-07-13T07:43:23;101548.72;;;19.32;75.99
51986;BME280;38002;53.296;6.600;2023-07-13T07:48:24;101546.41;;;19.42;74.77
51986;BME280;38002;53.296;6.600;2023-07-13T07:53:24;101557.38;;;19.63;74.58
51986;BME280;38002;53.296;6.600;2023-07-13T07:58:25;101555.16;;;19.86;73.61
51986;BME280;38002;53.296;6.600;2023-07-13T08:03:25;101547.97;;;19.92;73.17
51986;BME280;38002;53.296;6.600;2023-07-13T08:08:26;101550.69;;;19.79;73.20
51986;BME280;38002;53.296;6.600;2023-07-13T08:13:26;101567.59;;;19.63;73.07
51986;BME280;38002;53.296;6.600;2023-07-13T08:18:27;101569.09;;;19.37;73.63
51986;BME280;38002;53.296;6.600;2023-07-13T08:23:30;101565.78;;;19.14;74.04
51986;BME280;38002;53.296;6.600;2023-07-13T08:28:31;101576.88;;;18.99;74.33
51986;BME280;38002;53.296;6.600;2023-07-13T08:33:34;101570.91;;;18.96;74.14
51986;BME280;38002;53.296;6.600;2023-07-13T08:38:35;101575.28;;;18.84;74.08
51986;BME280;38002;53.296;6.600;2023-07-13T08:43:37;101569.06;;;18.75;74.14
51986;BME280;38002;53.296;6.600;2023-07-13T08:48:51;101571.81;;;18.75;74.19
51986;BME280;38002;53.296;6.600;2023-07-13T08:53:55;101570.50;;;18.71;73.49
51986;BME280;38002;53.296;6.600;2023-07-13T08:59:01;101574.72;;;18.67;73.81
51986;BME280;38002;53.296;6.600;2023-07-13T09:04:21;101574.13;;;18.99;73.40
51986;BME280;38002;53.296;6.600;2023-07-13T09:14:52;101572.22;;;19.28;72.82
51986;BME280;38002;53.296;6.600;2023-07-13T09:19:58;101574.97;;;19.56;72.49
51986;BME280;38002;53.296;6.600;2023-07-13T09:25:21;101562.50;;;20.14;72.63
51986;BME280;38002;53.296;6.600;2023-07-13T09:30:33;101566.69;;;20.77;71.48
51986;BME280;38002;53.296;6.600;2023-07-13T09:35:34;101562.41;;;20.68;70.60
51986;BME280;38002;53.296;6.600;2023-07-13T09:41:15;101539.38;;;20.28;65.17
